createdAt,value
2022-10-16T00:01:13.659Z,13.30
2022-10-16T00:03:15.311Z,13.30
2022-10-16T00:05:17.025Z,13.30
2022-10-16T00:07:18.712Z,13.30
2022-10-16T00:09:20.345Z,13.20
2022-10-16T00:11:29.661Z,13.20
2022-10-16T00:13:31.905Z,13.20
2022-10-16T00:15:37.417Z,13.20
2022-10-16T00:17:39.153Z,13.20
2022-10-16T00:19:40.819Z,13.10
2022-10-16T00:21:42.666Z,13.10
2022-10-16T00:23:44.336Z,13.10
2022-10-16T00:25:46.302Z,13.10
2022-10-16T00:27:48.037Z,13.10
2022-10-16T00:29:53.182Z,13.00
2022-10-16T00:31:54.844Z,13.00
2022-10-16T00:33:56.874Z,13.00
2022-10-16T00:35:59.675Z,12.90
2022-10-16T00:38:01.291Z,12.90
2022-10-16T00:40:03.009Z,12.90
2022-10-16T00:42:04.684Z,12.90
2022-10-16T00:44:26.304Z,12.80
2022-10-16T00:46:31.126Z,12.80
2022-10-16T00:48:32.745Z,12.80
2022-10-16T00:50:35.096Z,12.80
2022-10-16T00:52:37.765Z,12.70
2022-10-16T00:54:39.376Z,12.70
2022-10-16T00:56:41.478Z,12.70
2022-10-16T00:58:43.178Z,12.70
2022-10-16T01:00:44.829Z,12.70
2022-10-16T01:02:52.535Z,12.70
2022-10-16T01:04:55.360Z,12.70
2022-10-16T01:07:09.124Z,12.70
2022-10-16T01:09:10.712Z,12.60
2022-10-16T01:11:23.142Z,12.60
2022-10-16T01:13:33.796Z,12.60
2022-10-16T01:15:41.996Z,12.60
2022-10-16T01:18:04.040Z,12.70
2022-10-16T01:20:24.471Z,12.60
2022-10-16T01:22:29.675Z,12.60
2022-10-16T01:24:31.317Z,12.60
2022-10-16T01:26:42.111Z,12.60
2022-10-16T01:28:48.699Z,12.60
2022-10-16T01:30:51.834Z,12.60
2022-10-16T01:32:53.457Z,12.60
2022-10-16T01:34:58.810Z,12.60
2022-10-16T01:37:06.112Z,12.60
2022-10-16T01:39:10.339Z,12.60
2022-10-16T01:41:27.639Z,12.60
2022-10-16T01:43:36.025Z,12.50
2022-10-16T01:45:37.890Z,12.50
2022-10-16T01:47:40.029Z,12.50
2022-10-16T01:49:42.113Z,12.50
2022-10-16T01:51:45.905Z,12.50
2022-10-16T01:53:49.597Z,12.40
2022-10-16T01:55:53.063Z,12.40
2022-10-16T01:57:55.097Z,12.40
2022-10-16T01:59:59.621Z,12.40
2022-10-16T02:02:02.704Z,12.30
2022-10-16T02:04:24.550Z,12.40
2022-10-16T02:06:26.867Z,12.30
2022-10-16T02:08:29.787Z,12.30
2022-10-16T02:10:32.779Z,12.30
2022-10-16T02:12:37.337Z,12.30
2022-10-16T02:14:39.524Z,12.20
2022-10-16T02:16:45.657Z,12.20
2022-10-16T02:18:47.498Z,12.20
2022-10-16T02:20:56.414Z,12.20
2022-10-16T02:22:59.211Z,12.20
2022-10-16T02:25:09.225Z,12.20
2022-10-16T02:27:27.676Z,12.20
2022-10-16T02:29:29.358Z,12.20
2022-10-16T02:31:32.802Z,12.20
2022-10-16T02:33:35.518Z,12.20
2022-10-16T02:35:38.202Z,12.10
2022-10-16T02:37:41.472Z,12.20
2022-10-16T02:39:43.088Z,12.20
2022-10-16T02:41:44.708Z,12.20
2022-10-16T02:43:46.349Z,12.20
2022-10-16T02:45:48.013Z,12.20
2022-10-16T02:47:49.728Z,12.10
2022-10-16T02:49:51.420Z,12.10
2022-10-16T02:51:53.004Z,12.10
2022-10-16T02:53:54.654Z,12.10
2022-10-16T02:55:56.277Z,12.10
2022-10-16T02:57:58.013Z,12.10
2022-10-16T02:59:59.725Z,12.10
2022-10-16T03:02:01.378Z,12.00
2022-10-16T03:04:03.088Z,12.10
2022-10-16T03:06:04.961Z,12.10
2022-10-16T03:08:06.674Z,12.00
2022-10-16T03:10:08.549Z,12.20
2022-10-16T03:12:10.231Z,12.00
2022-10-16T03:14:11.933Z,12.10
2022-10-16T03:16:13.636Z,12.00
2022-10-16T03:18:15.890Z,12.00
2022-10-16T03:20:17.553Z,12.10
2022-10-16T03:22:19.218Z,12.00
2022-10-16T03:24:20.794Z,12.00
2022-10-16T03:26:22.470Z,12.00
2022-10-16T03:28:24.262Z,12.00
2022-10-16T03:30:25.920Z,11.90
2022-10-16T03:32:29.653Z,12.00
2022-10-16T03:34:31.380Z,12.00
2022-10-16T03:36:33.022Z,11.90
2022-10-16T03:38:34.731Z,12.00
2022-10-16T03:40:36.346Z,12.00
2022-10-16T03:42:38.041Z,11.90
2022-10-16T03:44:39.668Z,12.00
2022-10-16T03:46:41.301Z,11.90
2022-10-16T03:48:42.972Z,11.90
2022-10-16T03:50:44.772Z,12.00
2022-10-16T03:52:46.425Z,11.90
2022-10-16T03:54:48.046Z,12.00
2022-10-16T03:56:49.722Z,12.00
2022-10-16T03:58:51.325Z,12.00
2022-10-16T04:00:53.430Z,12.00
2022-10-16T04:02:55.103Z,12.00
2022-10-16T04:04:56.717Z,12.10
2022-10-16T04:06:58.329Z,12.10
2022-10-16T04:08:59.976Z,12.10
2022-10-16T04:11:02.188Z,12.10
2022-10-16T04:13:03.974Z,12.10
2022-10-16T04:15:05.976Z,12.10
2022-10-16T04:17:07.588Z,12.10
2022-10-16T04:19:10.062Z,12.20
2022-10-16T04:21:11.701Z,12.20
2022-10-16T04:23:13.348Z,12.20
2022-10-16T04:25:15.076Z,12.20
2022-10-16T04:27:16.728Z,12.20
2022-10-16T04:29:18.438Z,12.20
2022-10-16T04:31:20.225Z,12.30
2022-10-16T04:33:21.829Z,12.30
2022-10-16T04:35:23.610Z,12.30
2022-10-16T04:37:26.614Z,12.30
2022-10-16T04:39:28.410Z,12.30
2022-10-16T04:41:30.000Z,12.40
2022-10-16T04:43:31.666Z,12.40
2022-10-16T04:45:33.320Z,12.40
2022-10-16T04:47:34.935Z,12.50
2022-10-16T04:49:36.522Z,12.50
2022-10-16T04:51:38.105Z,12.50
2022-10-16T04:53:39.739Z,12.50
2022-10-16T04:55:42.302Z,12.80
2022-10-16T04:57:43.897Z,12.60
2022-10-16T04:59:45.503Z,12.60
2022-10-16T05:01:47.115Z,12.60
2022-10-16T05:03:48.824Z,12.60
2022-10-16T05:05:50.490Z,12.60
2022-10-16T05:07:52.442Z,12.60
2022-10-16T05:09:54.447Z,12.70
2022-10-16T05:11:56.101Z,12.60
2022-10-16T05:13:57.793Z,12.70
2022-10-16T05:15:59.476Z,12.70
2022-10-16T05:18:01.489Z,12.70
2022-10-16T05:20:04.197Z,12.70
2022-10-16T05:22:06.009Z,12.80
2022-10-16T05:24:07.665Z,12.80
2022-10-16T05:26:09.667Z,12.80
2022-10-16T05:28:11.290Z,12.80
2022-10-16T05:30:12.890Z,12.80
2022-10-16T05:32:15.075Z,12.80
2022-10-16T05:34:16.717Z,12.80
2022-10-16T05:36:19.260Z,12.80
2022-10-16T05:38:20.907Z,12.80
2022-10-16T05:40:22.613Z,12.80
2022-10-16T05:42:24.256Z,12.80
2022-10-16T05:44:25.933Z,12.90
2022-10-16T05:46:27.555Z,12.90
2022-10-16T05:48:29.278Z,12.90
2022-10-16T05:50:30.898Z,12.90
2022-10-16T05:52:32.606Z,12.90
2022-10-16T05:54:34.301Z,12.90
2022-10-16T05:56:35.898Z,12.90
2022-10-16T05:58:38.462Z,12.90
2022-10-16T06:00:40.102Z,12.90
2022-10-16T06:02:41.697Z,12.90
2022-10-16T06:04:43.361Z,12.90
2022-10-16T06:06:45.016Z,12.90
2022-10-16T06:08:46.647Z,12.90
2022-10-16T06:10:48.498Z,12.90
2022-10-16T06:12:50.123Z,12.90
2022-10-16T06:14:51.766Z,12.90
2022-10-16T06:16:53.384Z,12.90
2022-10-16T06:18:56.782Z,13.00
2022-10-16T06:20:59.314Z,13.00
2022-10-16T06:23:00.910Z,13.00
2022-10-16T06:25:02.539Z,13.00
2022-10-16T06:27:05.180Z,13.00
2022-10-16T06:29:06.804Z,13.00
2022-10-16T06:31:09.184Z,13.10
2022-10-16T06:33:11.643Z,13.10
2022-10-16T06:35:13.306Z,13.10
2022-10-16T06:37:14.955Z,13.20
2022-10-16T06:39:16.616Z,13.20
2022-10-16T06:41:19.388Z,13.20
2022-10-16T06:43:20.993Z,13.20
2022-10-16T06:45:22.619Z,13.30
2022-10-16T06:47:24.703Z,13.30
2022-10-16T06:49:26.360Z,13.30
2022-10-16T06:51:28.059Z,13.40
2022-10-16T06:53:39.583Z,13.40
2022-10-16T06:55:45.836Z,13.40
2022-10-16T06:57:50.291Z,13.40
2022-10-16T06:59:55.217Z,13.40
2022-10-16T07:01:57.119Z,13.50
2022-10-16T07:03:58.853Z,13.50
2022-10-16T07:06:07.102Z,13.50
2022-10-16T07:08:09.153Z,13.50
2022-10-16T07:10:10.772Z,13.50
2022-10-16T07:12:12.367Z,13.60
2022-10-16T07:14:17.719Z,13.60
2022-10-16T07:16:20.581Z,13.60
2022-10-16T07:18:22.844Z,13.70
2022-10-16T07:20:24.786Z,13.70
2022-10-16T07:22:26.751Z,13.70
2022-10-16T07:24:28.752Z,13.80
2022-10-16T07:26:31.867Z,13.80
2022-10-16T07:28:33.970Z,14.00
2022-10-16T07:30:36.195Z,14.00
2022-10-16T07:32:37.834Z,14.00
2022-10-16T07:34:39.555Z,14.10
2022-10-16T07:38:44.384Z,14.20
2022-10-16T07:40:46.251Z,14.30
2022-10-16T07:42:47.880Z,14.40
2022-10-16T07:44:49.548Z,14.50
2022-10-16T07:46:51.144Z,14.50
2022-10-16T07:48:53.212Z,14.60
2022-10-16T07:50:58.064Z,14.70
2022-10-16T07:52:59.742Z,14.80
2022-10-16T07:55:01.546Z,14.90
2022-10-16T07:57:03.263Z,14.90
2022-10-16T07:59:04.940Z,15.00
2022-10-16T08:01:10.847Z,15.10
2022-10-16T08:03:12.502Z,15.20
2022-10-16T08:05:14.218Z,15.20
2022-10-16T08:07:15.813Z,15.30
2022-10-16T08:09:17.518Z,15.40
2022-10-16T08:11:19.143Z,15.50
2022-10-16T08:13:20.890Z,15.60
2022-10-16T08:15:22.739Z,15.70
2022-10-16T08:17:24.747Z,15.80
2022-10-16T08:19:26.605Z,15.80
2022-10-16T08:21:28.254Z,15.90
2022-10-16T08:23:30.015Z,16.00
2022-10-16T08:25:31.667Z,16.10
2022-10-16T08:27:33.498Z,16.20
2022-10-16T08:29:35.217Z,16.30
2022-10-16T08:31:36.908Z,16.40
2022-10-16T08:33:39.271Z,16.50
2022-10-16T08:35:40.981Z,16.60
2022-10-16T08:37:42.746Z,16.70
2022-10-16T08:39:44.391Z,16.80
2022-10-16T08:41:52.057Z,16.90
2022-10-16T08:44:02.869Z,16.90
2022-10-16T08:46:23.421Z,17.00
2022-10-16T08:48:30.214Z,17.10
2022-10-16T08:50:33.758Z,17.20
2022-10-16T08:52:36.471Z,17.30
2022-10-16T08:54:46.000Z,17.40
2022-10-16T08:56:47.647Z,17.40
2022-10-16T08:58:49.694Z,17.50
2022-10-16T09:00:54.136Z,17.60
2022-10-16T09:03:07.944Z,17.70
2022-10-16T09:05:22.672Z,17.70
2022-10-16T09:07:27.013Z,17.90
2022-10-16T09:09:47.479Z,17.90
2022-10-16T09:11:51.809Z,18.00
2022-10-16T09:14:04.979Z,18.10
2022-10-16T09:16:06.677Z,18.20
2022-10-16T09:18:15.175Z,18.30
2022-10-16T09:20:35.664Z,18.40
2022-10-16T09:22:37.315Z,18.50
2022-10-16T09:24:38.933Z,18.60
2022-10-16T09:26:40.615Z,18.80
2022-10-16T09:28:42.316Z,18.90
2022-10-16T09:30:44.398Z,19.00
2022-10-16T09:32:47.899Z,19.10
2022-10-16T09:34:51.695Z,19.20
2022-10-16T09:36:53.455Z,19.20
2022-10-16T09:39:08.631Z,19.30
2022-10-16T09:41:23.363Z,19.40
2022-10-16T09:43:28.589Z,19.50
2022-10-16T09:45:30.210Z,19.60
2022-10-16T09:47:32.370Z,19.60
2022-10-16T09:49:34.009Z,19.60
2022-10-16T09:51:39.287Z,19.70
2022-10-16T09:53:41.025Z,19.80
2022-10-16T09:55:49.112Z,19.80
2022-10-16T09:57:51.555Z,19.90
2022-10-16T09:59:54.224Z,20.00
2022-10-16T10:01:56.410Z,20.00
2022-10-16T10:04:02.416Z,20.10
2022-10-16T10:06:24.379Z,20.10
2022-10-16T10:08:26.024Z,20.20
2022-10-16T10:10:28.931Z,20.30
2022-10-16T10:12:33.645Z,20.40
2022-10-16T10:14:37.157Z,20.40
2022-10-16T10:16:38.811Z,20.50
2022-10-16T10:18:40.436Z,20.50
2022-10-16T10:20:42.332Z,20.60
2022-10-16T10:22:46.726Z,20.60
2022-10-16T10:25:00.591Z,20.60
2022-10-16T10:27:08.009Z,20.70
2022-10-16T10:29:15.462Z,20.70
2022-10-16T10:31:36.009Z,20.90
2022-10-16T10:33:42.757Z,20.90
2022-10-16T10:35:44.409Z,20.90
2022-10-16T10:38:10.525Z,21.00
2022-10-16T10:40:22.950Z,21.00
2022-10-16T10:42:48.684Z,21.00
2022-10-16T10:45:05.407Z,21.10
2022-10-16T10:47:09.979Z,21.20
2022-10-16T10:49:14.601Z,21.20
2022-10-16T10:51:23.920Z,21.30
2022-10-16T10:53:42.889Z,21.30
2022-10-16T10:55:50.104Z,21.40
2022-10-16T10:58:18.194Z,21.50
2022-10-16T11:00:22.888Z,21.60
2022-10-16T11:02:24.906Z,21.60
2022-10-16T11:04:29.520Z,21.70
2022-10-16T11:06:31.193Z,21.70
2022-10-16T11:08:38.180Z,21.70
2022-10-16T11:10:54.746Z,21.80
2022-10-16T11:12:59.887Z,21.80
2022-10-16T11:15:04.622Z,21.90
2022-10-16T11:17:12.479Z,22.00
2022-10-16T11:19:19.759Z,22.00
2022-10-16T11:21:22.645Z,22.10
2022-10-16T11:23:32.112Z,22.00
2022-10-16T11:25:34.188Z,22.10
2022-10-16T11:27:44.247Z,22.10
2022-10-16T11:29:54.848Z,22.10
2022-10-16T11:31:59.415Z,22.20
2022-10-16T11:34:07.958Z,22.20
2022-10-16T11:36:14.147Z,22.20
2022-10-16T11:38:21.801Z,22.30
2022-10-16T11:40:26.995Z,22.30
2022-10-16T11:42:34.472Z,22.40
2022-10-16T11:44:54.663Z,22.50
2022-10-16T11:47:24.702Z,22.50
2022-10-16T11:49:26.466Z,22.50
2022-10-16T11:51:34.702Z,22.60
2022-10-16T11:53:47.125Z,22.60
2022-10-16T11:55:48.879Z,22.60
2022-10-16T11:57:52.795Z,22.70
2022-10-16T12:00:10.178Z,22.70
2022-10-16T12:02:23.980Z,22.70
2022-10-16T12:04:35.462Z,22.70
2022-10-16T12:06:41.815Z,22.70
2022-10-16T12:08:43.886Z,22.70
2022-10-16T12:10:46.837Z,22.80
2022-10-16T12:12:48.506Z,22.80
2022-10-16T12:15:22.243Z,22.90
2022-10-16T12:17:22.495Z,22.90
2022-10-16T12:19:25.346Z,22.90
2022-10-16T12:21:31.179Z,23.00
2022-10-16T12:23:33.857Z,23.00
2022-10-16T12:25:36.452Z,23.00
2022-10-16T12:27:38.260Z,23.10
2022-10-16T12:29:41.530Z,23.10
2022-10-16T12:31:54.844Z,23.20
2022-10-16T12:34:02.068Z,23.20
2022-10-16T12:36:05.799Z,23.20
2022-10-16T12:38:09.413Z,23.40
2022-10-16T12:40:16.288Z,23.40
2022-10-16T12:42:27.121Z,23.50
2022-10-16T12:44:33.267Z,23.60
2022-10-16T12:46:37.953Z,23.60
2022-10-16T12:48:49.422Z,23.60
2022-10-16T12:50:57.337Z,23.70
2022-10-16T12:52:59.580Z,23.70
2022-10-16T12:55:01.878Z,23.70
2022-10-16T12:57:03.577Z,23.70
2022-10-16T12:59:17.121Z,23.70
2022-10-16T13:01:35.845Z,23.60
2022-10-16T13:03:56.211Z,23.70
2022-10-16T13:06:13.217Z,23.70
2022-10-16T13:08:14.899Z,23.70
2022-10-16T13:10:24.496Z,23.70
2022-10-16T13:12:35.606Z,23.70
2022-10-16T13:15:15.770Z,23.70
2022-10-16T13:17:23.826Z,23.70
2022-10-16T13:19:28.484Z,23.70
2022-10-16T13:21:35.967Z,23.70
2022-10-16T13:23:49.177Z,23.80
2022-10-16T13:26:08.574Z,23.80
2022-10-16T13:28:11.378Z,23.80
2022-10-16T13:30:12.997Z,23.70
2022-10-16T13:32:16.295Z,23.70
2022-10-16T13:34:22.431Z,23.80
2022-10-16T13:36:25.819Z,23.70
2022-10-16T13:38:28.610Z,23.70
2022-10-16T13:40:30.437Z,23.70
2022-10-16T13:42:32.108Z,23.70
2022-10-16T13:44:40.760Z,23.70
2022-10-16T13:46:42.398Z,23.70
2022-10-16T13:48:44.371Z,23.70
2022-10-16T13:50:46.042Z,23.70
2022-10-16T13:52:47.719Z,23.70
2022-10-16T13:54:49.404Z,23.70
2022-10-16T13:57:03.005Z,23.70
2022-10-16T13:59:23.943Z,23.70
2022-10-16T14:01:30.161Z,23.70
2022-10-16T14:03:36.570Z,23.60
2022-10-16T14:05:43.589Z,23.70
2022-10-16T14:07:49.294Z,23.70
2022-10-16T14:09:51.529Z,23.70
2022-10-16T14:11:55.485Z,23.70
2022-10-16T14:13:57.559Z,23.80
2022-10-16T14:16:01.178Z,23.80
2022-10-16T14:18:03.544Z,23.80
2022-10-16T14:20:06.920Z,23.80
2022-10-16T14:22:24.385Z,23.80
2022-10-16T14:24:32.146Z,23.90
2022-10-16T14:26:41.579Z,23.90
2022-10-16T14:28:43.847Z,23.90
2022-10-16T14:30:51.516Z,24.00
2022-10-16T14:32:54.724Z,24.00
2022-10-16T14:34:56.494Z,24.00
2022-10-16T14:36:59.632Z,24.00
2022-10-16T14:39:05.585Z,24.00
2022-10-16T14:41:07.275Z,24.00
2022-10-16T14:43:19.882Z,24.00
2022-10-16T14:45:22.858Z,24.10
2022-10-16T14:47:27.739Z,24.10
2022-10-16T14:49:29.869Z,24.10
2022-10-16T14:51:31.692Z,24.10
2022-10-16T14:53:33.289Z,24.10
2022-10-16T14:55:37.393Z,24.10
2022-10-16T14:57:39.842Z,24.10
2022-10-16T14:59:42.518Z,24.10
2022-10-16T15:01:44.978Z,24.10
2022-10-16T15:03:46.761Z,24.00
2022-10-16T15:05:49.194Z,24.00
2022-10-16T15:07:51.582Z,23.90
2022-10-16T15:09:53.968Z,23.80
2022-10-16T15:11:55.561Z,23.70
2022-10-16T15:13:57.201Z,23.70
2022-10-16T15:15:59.203Z,23.60
2022-10-16T15:18:02.081Z,23.50
2022-10-16T15:20:03.885Z,23.50
2022-10-16T15:22:05.583Z,23.40
2022-10-16T15:24:09.950Z,23.30
2022-10-16T15:26:11.693Z,23.20
2022-10-16T15:28:13.940Z,23.20
2022-10-16T15:30:15.717Z,23.00
2022-10-16T15:32:17.397Z,23.00
2022-10-16T15:34:20.526Z,22.90
2022-10-16T15:36:26.112Z,22.80
2022-10-16T15:38:28.874Z,22.70
2022-10-16T15:40:30.539Z,22.70
2022-10-16T15:42:32.181Z,22.60
2022-10-16T15:44:33.893Z,22.50
2022-10-16T15:46:35.688Z,22.40
2022-10-16T15:48:37.430Z,22.20
2022-10-16T15:50:39.539Z,22.20
2022-10-16T15:52:42.006Z,22.10
2022-10-16T15:54:44.177Z,22.00
2022-10-16T15:56:46.564Z,21.90
2022-10-16T15:58:48.181Z,21.80
2022-10-16T16:00:59.166Z,21.70
2022-10-16T16:03:00.893Z,21.60
2022-10-16T16:05:02.810Z,21.50
2022-10-16T16:07:04.513Z,21.60
2022-10-16T16:09:06.181Z,21.30
2022-10-16T16:11:08.923Z,21.20
2022-10-16T16:13:10.536Z,21.10
2022-10-16T16:15:12.258Z,21.00
2022-10-16T16:17:13.922Z,21.00
2022-10-16T16:19:17.120Z,20.80
2022-10-16T16:21:18.994Z,20.80
2022-10-16T16:23:21.039Z,20.70
2022-10-16T16:25:23.343Z,20.60
2022-10-16T16:27:26.369Z,20.50
2022-10-16T16:29:28.468Z,20.40
2022-10-16T16:31:31.121Z,20.30
2022-10-16T16:33:32.862Z,20.20
2022-10-16T16:35:34.503Z,20.10
2022-10-16T16:37:36.330Z,20.00
2022-10-16T16:39:38.116Z,19.90
2022-10-16T16:41:39.826Z,19.80
2022-10-16T16:43:41.534Z,19.80
2022-10-16T16:45:43.150Z,19.70
2022-10-16T16:47:44.788Z,19.60
2022-10-16T16:49:47.353Z,19.50
2022-10-16T16:51:49.021Z,19.40
2022-10-16T16:53:51.914Z,19.30
2022-10-16T16:55:53.576Z,19.30
2022-10-16T16:57:55.727Z,19.20
2022-10-16T16:59:57.428Z,19.00
2022-10-16T17:01:59.815Z,19.00
2022-10-16T17:04:03.118Z,18.90
2022-10-16T17:06:08.719Z,18.90
2022-10-16T17:08:10.352Z,18.70
2022-10-16T17:10:12.326Z,18.70
2022-10-16T17:12:13.949Z,18.60
2022-10-16T17:14:16.086Z,18.50
2022-10-16T17:16:17.822Z,18.50
2022-10-16T17:18:20.228Z,18.40
2022-10-16T17:20:21.845Z,18.30
2022-10-16T17:22:23.548Z,18.30
2022-10-16T17:24:25.190Z,18.20
2022-10-16T17:26:26.986Z,18.10
2022-10-16T17:28:28.696Z,18.00
2022-10-16T17:30:30.569Z,18.00
2022-10-16T17:32:32.198Z,17.90
2022-10-16T17:34:35.544Z,17.90
2022-10-16T17:36:37.853Z,17.80
2022-10-16T17:38:39.490Z,17.70
2022-10-16T17:40:42.282Z,17.70
2022-10-16T17:42:44.001Z,17.60
2022-10-16T17:44:45.614Z,17.50
2022-10-16T17:46:48.687Z,17.40
2022-10-16T17:48:52.563Z,17.40
2022-10-16T17:50:54.215Z,17.30
2022-10-16T17:52:55.830Z,17.30
2022-10-16T17:54:58.385Z,17.20
2022-10-16T17:56:59.982Z,17.10
2022-10-16T17:59:02.022Z,17.10
2022-10-16T18:01:12.113Z,17.10
2022-10-16T18:03:13.777Z,17.00
2022-10-16T18:05:15.716Z,17.00
2022-10-16T18:07:17.836Z,16.90
2022-10-16T18:09:20.702Z,16.80
2022-10-16T18:11:23.346Z,16.80
2022-10-16T18:13:25.059Z,16.70
2022-10-16T18:15:26.833Z,16.70
2022-10-16T18:17:30.030Z,16.60
2022-10-16T18:19:32.009Z,16.60
2022-10-16T18:21:33.649Z,16.60
2022-10-16T18:23:35.889Z,16.50
2022-10-16T18:25:37.683Z,16.50
2022-10-16T18:27:39.691Z,16.50
2022-10-16T18:29:41.338Z,16.40
2022-10-16T18:31:43.738Z,16.40
2022-10-16T18:33:50.202Z,16.40
2022-10-16T18:35:51.959Z,16.30
2022-10-16T18:37:56.289Z,16.30
2022-10-16T18:39:58.024Z,16.30
2022-10-16T18:42:00.090Z,16.20
2022-10-16T18:44:02.039Z,16.20
2022-10-16T18:46:08.657Z,16.10
2022-10-16T18:48:10.327Z,16.10
2022-10-16T18:50:12.474Z,16.00
2022-10-16T18:52:14.105Z,16.00
2022-10-16T18:54:16.380Z,16.00
2022-10-16T18:56:18.884Z,15.90
2022-10-16T18:58:20.581Z,15.90
2022-10-16T19:00:22.166Z,15.90
2022-10-16T19:02:23.912Z,15.90
2022-10-16T19:04:25.621Z,15.80
2022-10-16T19:06:27.955Z,15.80
2022-10-16T19:08:32.216Z,15.70
2022-10-16T19:10:36.260Z,15.70
2022-10-16T19:12:37.994Z,15.60
2022-10-16T19:14:39.695Z,15.60
2022-10-16T19:16:42.971Z,15.60
2022-10-16T19:18:44.993Z,15.60
2022-10-16T19:20:46.634Z,15.50
2022-10-16T19:22:56.725Z,15.50
2022-10-16T19:24:58.478Z,15.50
2022-10-16T19:27:00.086Z,15.40
2022-10-16T19:29:02.798Z,15.50
2022-10-16T19:31:05.627Z,15.40
2022-10-16T19:33:07.311Z,15.40
2022-10-16T19:35:09.568Z,15.30
2022-10-16T19:37:11.424Z,15.30
2022-10-16T19:39:14.747Z,15.30
2022-10-16T19:41:17.185Z,15.20
2022-10-16T19:43:19.411Z,15.20
2022-10-16T19:45:21.415Z,15.20
2022-10-16T19:47:23.333Z,15.20
2022-10-16T19:49:25.178Z,15.10
2022-10-16T19:51:27.849Z,15.10
2022-10-16T19:53:29.552Z,15.10
2022-10-16T19:55:31.702Z,15.00
2022-10-16T19:59:39.664Z,15.00
2022-10-16T20:01:43.794Z,14.90
2022-10-16T20:03:45.986Z,14.90
2022-10-16T20:05:51.456Z,14.90
2022-10-16T20:07:53.167Z,14.80
2022-10-16T20:09:54.860Z,14.80
2022-10-16T20:11:56.549Z,14.80
2022-10-16T20:13:58.555Z,14.80
2022-10-16T20:16:00.299Z,14.70
2022-10-16T20:18:01.956Z,14.70
2022-10-16T20:20:03.690Z,14.60
2022-10-16T20:22:05.670Z,14.60
2022-10-16T20:24:08.094Z,14.60
2022-10-16T20:26:12.925Z,14.60
2022-10-16T20:28:16.159Z,14.50
2022-10-16T20:30:17.768Z,14.50
2022-10-16T20:32:19.475Z,14.40
2022-10-16T20:34:21.112Z,14.40
2022-10-16T20:36:23.509Z,14.40
2022-10-16T20:38:26.330Z,14.40
2022-10-16T20:40:27.970Z,14.40
2022-10-16T20:42:29.622Z,14.30
2022-10-16T20:44:31.242Z,14.30
2022-10-16T20:46:33.095Z,14.20
2022-10-16T20:48:35.167Z,14.20
2022-10-16T20:50:37.316Z,14.20
2022-10-16T20:52:39.090Z,14.20
2022-10-16T20:54:40.803Z,14.20
2022-10-16T20:56:43.953Z,14.10
2022-10-16T20:58:45.598Z,14.10
2022-10-16T21:00:47.229Z,14.10
2022-10-16T21:02:52.334Z,14.10
2022-10-16T21:04:54.602Z,14.00
2022-10-16T21:06:56.260Z,14.00
2022-10-16T21:08:59.672Z,14.00
2022-10-16T21:11:01.367Z,14.00
2022-10-16T21:13:03.783Z,14.00
2022-10-16T21:15:20.487Z,13.90
2022-10-16T21:17:22.139Z,13.90
2022-10-16T21:19:23.901Z,13.90
2022-10-16T21:21:26.868Z,13.90
2022-10-16T21:23:28.937Z,13.90
2022-10-16T21:25:30.604Z,13.80
2022-10-16T21:27:38.896Z,13.80
2022-10-16T21:29:40.680Z,13.80
2022-10-16T21:31:42.799Z,13.80
2022-10-16T21:33:44.929Z,13.80
2022-10-16T21:35:46.574Z,13.80
2022-10-16T21:37:48.920Z,13.70
2022-10-16T21:39:50.729Z,13.70
2022-10-16T21:41:52.718Z,13.70
2022-10-16T21:43:54.996Z,13.60
2022-10-16T21:45:56.637Z,13.60
2022-10-16T21:47:58.341Z,13.60
2022-10-16T21:50:00.001Z,13.60
2022-10-16T21:52:01.604Z,13.50
2022-10-16T21:54:03.873Z,13.50
2022-10-16T21:56:06.180Z,13.50
2022-10-16T21:58:07.805Z,13.50
2022-10-16T22:00:09.818Z,13.50
2022-10-16T22:02:11.522Z,13.40
2022-10-16T22:04:14.614Z,13.40
2022-10-16T22:06:17.249Z,13.40
2022-10-16T22:08:18.862Z,13.40
2022-10-16T22:10:20.504Z,13.30
2022-10-16T22:12:22.151Z,13.30
2022-10-16T22:14:23.774Z,13.30
2022-10-16T22:16:26.244Z,13.30
2022-10-16T22:18:28.374Z,13.30
2022-10-16T22:20:30.022Z,13.30
2022-10-16T22:22:31.726Z,13.20
2022-10-16T22:24:33.430Z,13.20
2022-10-16T22:26:35.851Z,13.20
2022-10-16T22:28:38.188Z,13.20
2022-10-16T22:30:40.703Z,13.20
2022-10-16T22:32:42.340Z,13.10
2022-10-16T22:34:44.127Z,13.10
2022-10-16T22:36:45.757Z,13.10
2022-10-16T22:38:47.385Z,13.10
2022-10-16T22:40:49.050Z,13.00
2022-10-16T22:42:50.689Z,13.10
2022-10-16T22:44:52.319Z,13.00
2022-10-16T22:46:54.139Z,13.00
2022-10-16T22:48:56.475Z,13.00
2022-10-16T22:50:58.067Z,13.00
2022-10-16T22:52:59.719Z,13.00
2022-10-16T22:55:01.348Z,13.00
2022-10-16T22:57:02.953Z,13.00
2022-10-16T22:59:04.778Z,12.90
2022-10-16T23:01:23.405Z,12.90
2022-10-16T23:03:25.150Z,12.90
2022-10-16T23:05:26.832Z,12.90
2022-10-16T23:07:28.429Z,12.90
2022-10-16T23:09:30.079Z,12.90
2022-10-16T23:11:31.677Z,12.90
2022-10-16T23:13:35.585Z,12.90
2022-10-16T23:15:40.769Z,12.90
2022-10-16T23:17:42.402Z,12.80
2022-10-16T23:19:44.055Z,12.80
2022-10-16T23:21:46.175Z,12.80
2022-10-16T23:23:47.821Z,12.80
2022-10-16T23:25:49.455Z,12.80
2022-10-16T23:27:53.584Z,12.70
2022-10-16T23:29:55.237Z,12.70
2022-10-16T23:31:57.395Z,12.80
2022-10-16T23:33:59.343Z,12.70
2022-10-16T23:36:05.763Z,12.70
2022-10-16T23:38:07.583Z,12.70
2022-10-16T23:40:09.369Z,12.70
2022-10-16T23:42:11.087Z,12.70
2022-10-16T23:44:12.704Z,12.70
2022-10-16T23:46:14.842Z,12.60
2022-10-16T23:48:16.517Z,12.60
2022-10-16T23:50:18.129Z,12.60
2022-10-16T23:52:19.782Z,12.50
2022-10-16T23:54:21.424Z,12.50
2022-10-16T23:56:23.028Z,12.50
2022-10-16T23:58:24.997Z,12.50
